Time;durP1;ratioP1;P1;durP2;ratioP2;P2;SDS_P1;SDS_P2;PMS_P1;PMS_P2;Temp;Humidity;BMP_temperature;BMP_pressure;BME280_temperature;BME280_humidity;BME280_pressure;Samples;Min_cycle;Max_cycle;Signal;HPM_P1;HPM_P2
2022/04/18 00:00:09;;;;;;;17.00;13.40;;;;;;;7.85;60.18;101943.28;5042811;28;20029;-67
2022/04/18 00:02:35;;;;;;;15.77;12.77;;;;;;;7.83;59.54;101950.81;5041460;28;20499;-67
2022/04/18 00:05:00;;;;;;;15.23;12.60;;;;;;;7.84;60.73;101940.72;5042528;28;20025;-67
2022/04/18 00:07:26;;;;;;;15.63;11.60;;;;;;;7.85;61.33;101942.44;5042368;28;20116;-67
2022/04/18 00:09:52;;;;;;;15.25;12.13;;;;;;;7.86;60.44;101938.69;5042698;28;20056;-67
2022/04/18 00:12:18;;;;;;;14.60;12.10;;;;;;;7.77;59.81;101946.94;5041514;28;20028;-67
2022/04/18 00:14:44;;;;;;;16.85;13.07;;;;;;;7.69;59.69;101932.50;5042347;28;20029;-67
2022/04/18 00:17:09;;;;;;;15.38;12.27;;;;;;;7.61;59.65;101936.19;5042278;28;20718;-67
2022/04/18 00:19:36;;;;;;;15.77;12.57;;;;;;;7.58;59.97;101938.41;5042717;28;20021;-67
2022/04/18 00:22:02;;;;;;;15.05;12.95;;;;;;;7.46;60.16;101933.41;5043772;28;20025;-67
2022/04/18 00:24:28;;;;;;;15.77;12.00;;;;;;;7.42;60.03;101928.47;5046242;28;20056;-67
2022/04/18 00:26:53;;;;;;;16.15;12.13;;;;;;;7.36;61.96;101926.47;5046630;28;20099;-67
2022/04/18 00:29:18;;;;;;;15.80;12.65;;;;;;;7.31;61.43;101929.75;5045402;28;20523;-67
2022/04/18 00:31:44;;;;;;;16.10;13.05;;;;;;;7.20;61.61;101925.56;5046217;28;20021;-67
2022/04/18 00:34:09;;;;;;;19.23;12.65;;;;;;;7.19;63.39;101926.59;5046310;28;20040;-67
2022/04/18 00:36:35;;;;;;;15.10;11.93;;;;;;;7.19;62.27;101928.47;5046465;28;20032;-67
2022/04/18 00:39:00;;;;;;;14.65;12.10;;;;;;;7.21;62.05;101930.00;5046850;28;20033;-67
2022/04/18 00:41:25;;;;;;;14.75;11.73;;;;;;;7.25;61.12;101925.03;5046138;28;20037;-68
2022/04/18 00:43:52;;;;;;;13.93;11.70;;;;;;;7.26;62.83;101930.31;5045175;28;20025;-67
2022/04/18 00:46:18;;;;;;;13.55;11.48;;;;;;;7.30;61.95;101930.81;5045774;28;20396;-67
2022/04/18 00:48:44;;;;;;;14.38;11.43;;;;;;;7.34;61.83;101934.00;5046171;28;20021;-67
2022/04/18 00:51:12;;;;;;;12.65;10.20;;;;;;;7.34;61.42;101937.56;5045752;28;20021;-67
2022/04/18 00:53:39;;;;;;;14.05;10.98;;;;;;;7.33;61.89;101932.31;5046067;28;20064;-68
2022/04/18 00:56:08;;;;;;;13.00;10.48;;;;;;;7.23;62.53;101927.06;5045733;28;20041;-67
2022/04/18 00:58:35;;;;;;;14.68;10.68;;;;;;;7.21;60.74;101924.53;5045156;28;20052;-67
2022/04/18 01:01:01;;;;;;;14.73;10.23;;;;;;;7.14;60.57;101918.09;5045489;28;20502;-68
2022/04/18 01:03:30;;;;;;;12.43;10.48;;;;;;;7.10;63.29;101933.16;5045778;28;20033;-67
2022/04/18 01:05:56;;;;;;;13.90;11.07;;;;;;;7.06;63.51;101920.88;5045636;28;20028;-67
2022/04/18 01:08:22;;;;;;;15.25;10.93;;;;;;;7.05;63.03;101926.53;5045638;28;20516;-67
2022/04/18 01:10:48;;;;;;;13.50;10.50;;;;;;;7.01;62.47;101921.44;5045247;28;20025;-67
2022/04/18 01:13:13;;;;;;;12.88;10.85;;;;;;;6.96;63.98;101915.66;5044560;28;20036;-66
2022/04/18 01:15:38;;;;;;;13.70;10.27;;;;;;;6.90;62.21;101913.66;5045897;28;20031;-67
2022/04/18 01:18:04;;;;;;;14.93;11.32;;;;;;;6.85;66.04;101912.50;5045567;28;20395;-67
2022/04/18 01:20:34;;;;;;;14.60;11.20;;;;;;;6.81;63.44;101917.47;5044818;28;20055;-66
2022/04/18 01:23:01;;;;;;;13.05;10.77;;;;;;;6.73;62.89;101925.69;5045684;28;20024;-67
2022/04/18 01:30:55;;;;;;;13.63;10.65;;;;;;;6.61;63.27;101918.94;5045422;28;20662;-67
2022/04/18 01:33:21;;;;;;;13.95;11.00;;;;;;;6.47;64.51;101910.47;5044954;28;20025;-67
2022/04/18 01:35:46;;;;;;;14.70;11.20;;;;;;;6.35;63.55;101921.97;5045131;28;20029;-66
2022/04/18 01:38:12;;;;;;;12.73;10.02;;;;;;;6.24;64.51;101915.88;5045029;28;20475;-66
2022/04/18 01:40:38;;;;;;;13.55;10.18;;;;;;;6.20;65.97;101919.97;5045749;28;20103;-67
2022/04/18 01:43:03;;;;;;;13.80;11.85;;;;;;;6.23;64.90;101918.75;5044531;28;20080;-67
2022/04/18 01:45:28;;;;;;;13.18;9.98;;;;;;;6.23;65.25;101924.19;5044856;28;20028;-67
2022/04/18 01:47:54;;;;;;;13.65;9.75;;;;;;;6.22;65.42;101922.50;5044938;28;20017;-66
2022/04/18 01:50:19;;;;;;;13.88;10.18;;;;;;;6.26;65.07;101914.84;5044471;28;20063;-66
2022/04/18 01:52:44;;;;;;;12.05;9.55;;;;;;;6.29;65.65;101912.59;5044624;28;20626;-67
2022/04/18 01:55:09;;;;;;;13.45;9.70;;;;;;;6.28;65.10;101910.03;5044469;28;20044;-67
2022/04/18 01:57:35;;;;;;;13.93;9.77;;;;;;;6.27;64.96;101913.81;5044567;28;20033;-67
2022/04/18 02:00:00;;;;;;;11.90;9.20;;;;;;;6.20;65.78;101909.06;5044953;28;20120;-66
2022/04/18 02:02:25;;;;;;;12.00;9.48;;;;;;;6.15;63.46;101910.59;5044286;28;20025;-67
2022/04/18 02:04:51;;;;;;;14.20;9.40;;;;;;;6.11;64.70;101903.78;5044949;28;20376;-67
2022/04/18 02:07:16;;;;;;;11.85;9.32;;;;;;;6.10;65.23;101902.94;5044057;28;20017;-66
2022/04/18 02:09:41;;;;;;;11.45;9.32;;;;;;;6.11;65.19;101903.78;5043416;28;20033;-67
2022/04/18 02:12:07;;;;;;;13.10;9.20;;;;;;;6.09;65.26;101906.72;5043739;28;20523;-66
2022/04/18 02:14:32;;;;;;;12.00;9.00;;;;;;;6.08;65.37;101904.13;5044594;28;20017;-67
2022/04/18 02:16:58;;;;;;;12.32;9.38;;;;;;;6.06;65.10;101904.31;5044718;28;20052;-67
2022/04/18 02:19:23;;;;;;;11.05;8.30;;;;;;;6.02;65.82;101905.69;5044550;28;20060;-66
2022/04/18 02:21:48;;;;;;;12.45;8.73;;;;;;;6.01;65.14;101897.69;5043821;28;20021;-67
2022/04/18 02:24:14;;;;;;;11.65;8.85;;;;;;;6.01;64.09;101898.53;5044308;28;20060;-67
2022/04/18 02:26:39;;;;;;;11.23;8.73;;;;;;;6.00;65.72;101896.84;5044588;28;20112;-66
2022/04/18 02:29:05;;;;;;;12.05;8.88;;;;;;;5.95;65.71;101889.19;5044086;28;20036;-66
2022/04/18 02:31:30;;;;;;;10.30;7.63;;;;;;;5.93;64.13;101891.25;5043535;28;20091;-67
2022/04/18 02:33:55;;;;;;;10.80;7.70;;;;;;;5.94;64.32;101905.72;5044481;28;20025;-67
2022/04/18 02:36:21;;;;;;;11.55;8.65;;;;;;;5.94;64.95;101905.72;5043767;28;20044;-67
2022/04/18 02:38:46;;;;;;;12.80;8.75;;;;;;;5.87;65.91;101896.50;5042867;28;20036;-66
2022/04/18 02:41:11;;;;;;;11.52;8.43;;;;;;;5.81;66.05;101897.19;5043596;28;20025;-67
2022/04/18 02:43:36;;;;;;;13.35;8.80;;;;;;;5.76;66.63;101888.69;5043960;28;20085;-66
2022/04/18 02:46:01;;;;;;;10.70;8.50;;;;;;;5.71;66.37;101892.78;5043687;28;20029;-67
2022/04/18 02:48:27;;;;;;;11.57;8.80;;;;;;;5.64;66.40;101885.50;5043674;28;20117;-67
2022/04/18 02:50:52;;;;;;;12.52;8.95;;;;;;;5.56;67.44;101880.88;5043188;28;20110;-66
2022/04/18 02:53:17;;;;;;;11.02;8.68;;;;;;;5.47;67.50;101881.91;5043407;28;20561;-67
2022/04/18 02:55:43;;;;;;;12.30;8.88;;;;;;;5.38;67.55;101882.97;5043471;28;20056;-66
2022/04/18 02:58:08;;;;;;;13.85;8.65;;;;;;;5.31;66.92;101879.22;5043506;28;20041;-67
2022/04/18 03:00:33;;;;;;;10.82;8.60;;;;;;;5.28;68.09;101874.97;5043051;28;20021;-67
2022/04/18 03:02:58;;;;;;;11.43;8.55;;;;;;;5.24;67.55;101876.31;5043760;28;20755;-67
2022/04/18 03:05:24;;;;;;;10.90;8.07;;;;;;;5.21;66.52;101866.59;5043354;28;20052;-66
2022/04/18 03:07:49;;;;;;;10.57;8.77;;;;;;;5.21;67.76;101863.03;5043500;28;20021;-67
2022/04/18 03:10:14;;;;;;;9.00;7.40;;;;;;;5.15;68.49;101863.72;5042797;28;20111;-66
2022/04/18 03:12:39;;;;;;;12.10;8.85;;;;;;;5.08;67.50;101858.13;5042840;28;20025;-66
2022/04/18 03:15:05;;;;;;;10.38;7.97;;;;;;;5.03;67.79;101860.50;5043843;28;20619;-66
2022/04/18 03:17:30;;;;;;;9.65;7.90;;;;;;;5.03;68.36;101859.66;5043136;28;20090;-67
2022/04/18 03:19:56;;;;;;;9.45;7.80;;;;;;;5.02;67.50;101856.06;5043131;28;20036;-66
2022/04/18 03:22:21;;;;;;;11.88;7.93;;;;;;;4.95;68.40;101860.47;5042932;28;20021;-66
2022/04/18 03:24:46;;;;;;;10.38;7.72;;;;;;;4.93;69.00;101857.09;5043340;28;20044;-66
2022/04/18 03:27:12;;;;;;;10.98;7.45;;;;;;;4.91;68.66;101851.78;5042279;28;20369;-67
2022/04/18 03:29:38;;;;;;;11.43;8.18;;;;;;;4.89;68.68;101855.72;5043429;28;20029;-66
2022/04/18 03:32:04;;;;;;;9.75;7.13;;;;;;;4.88;68.44;101856.75;5043200;28;20025;-66
2022/04/18 03:34:29;;;;;;;10.18;7.80;;;;;;;4.89;68.85;101853.00;5043173;28;20037;-67
2022/04/18 03:39:51;;;;;;;9.98;6.70;;;;;;;4.91;68.35;101861.81;5043642;28;20251;-66
2022/04/18 03:42:18;;;;;;;11.07;6.70;;;;;;;4.92;67.80;101856.25;5042219;28;20068;-66
2022/04/18 03:44:46;;;;;;;8.95;7.63;;;;;;;4.94;67.95;101856.91;5042884;28;20870;-67
2022/04/18 03:47:12;;;;;;;9.57;6.78;;;;;;;4.98;66.86;101864.75;5042813;28;20890;-66
2022/04/18 03:49:38;;;;;;;11.63;6.60;;;;;;;5.01;66.99;101867.13;5043351;28;20052;-66
2022/04/18 03:52:05;;;;;;;9.80;7.15;;;;;;;5.03;67.20;101863.22;5042857;28;20365;-66
2022/04/18 03:54:30;;;;;;;9.65;6.72;;;;;;;5.04;67.57;101859.47;5042417;28;20384;-66
2022/04/18 03:56:55;;;;;;;9.73;6.75;;;;;;;5.03;67.75;101865.09;5041272;28;20037;-66
2022/04/18 03:59:20;;;;;;;10.00;7.00;;;;;;;5.01;67.27;101867.13;5041095;28;20078;-67
2022/04/18 04:01:46;;;;;;;9.00;6.38;;;;;;;4.96;69.07;101859.44;5042739;28;20483;-67
2022/04/18 04:04:11;;;;;;;11.25;6.90;;;;;;;4.93;68.38;101859.81;5042206;28;20098;-67
2022/04/18 04:06:36;;;;;;;11.02;7.05;;;;;;;4.84;68.36;101856.22;5042776;28;20104;-67
2022/04/18 04:09:01;;;;;;;10.93;7.40;;;;;;;4.80;68.82;101854.84;5042774;28;20024;-67
2022/04/18 04:11:27;;;;;;;9.52;7.03;;;;;;;4.78;68.72;101853.34;5042502;28;20032;-66
2022/04/18 04:13:52;;;;;;;9.88;6.95;;;;;;;4.68;69.35;101854.34;5041948;28;20399;-67
2022/04/18 04:16:18;;;;;;;8.02;6.70;;;;;;;4.63;69.59;101851.25;5042459;28;20063;-67
2022/04/18 04:18:44;;;;;;;9.65;6.95;;;;;;;4.59;69.49;101839.00;5042686;28;20033;-67
2022/04/18 04:21:09;;;;;;;10.20;7.20;;;;;;;4.55;68.76;101845.78;5041931;28;20090;-66
2022/04/18 04:23:35;;;;;;;9.70;7.32;;;;;;;4.51;70.80;101855.31;5042430;28;20096;-67
2022/04/18 04:26:00;;;;;;;8.68;6.55;;;;;;;4.46;70.59;101849.53;5042540;28;20045;-67
2022/04/18 04:28:25;;;;;;;10.85;6.90;;;;;;;4.42;70.21;101849.00;5041789;28;20118;-67
2022/04/18 04:30:51;;;;;;;10.65;7.15;;;;;;;4.39;70.10;101853.91;5042292;28;20082;-66
2022/04/18 04:33:16;;;;;;;11.43;7.32;;;;;;;4.38;70.08;101846.78;5041994;28;20078;-66
2022/04/18 04:35:41;;;;;;;11.25;7.38;;;;;;;4.34;70.63;101851.69;5042306;28;20075;-66
2022/04/18 04:38:06;;;;;;;9.73;7.00;;;;;;;4.25;70.08;101855.38;5042861;28;20025;-66
2022/04/18 04:40:32;;;;;;;10.43;7.40;;;;;;;4.24;70.78;101855.56;5042324;28;20029;-66
2022/04/18 04:42:57;;;;;;;10.40;7.32;;;;;;;4.23;70.68;101853.88;5041383;28;20024;-66
2022/04/18 04:45:22;;;;;;;12.35;7.53;;;;;;;4.26;69.92;101850.81;5042298;28;20029;-67
2022/04/18 04:47:47;;;;;;;11.15;7.75;;;;;;;4.30;70.73;101849.47;5042193;28;20060;-66
2022/04/18 04:50:13;;;;;;;11.75;7.60;;;;;;;4.30;72.04;101861.19;5041879;28;20048;-67
2022/04/18 04:52:38;;;;;;;10.13;7.18;;;;;;;4.30;70.65;101863.06;5042359;28;20533;-66
2022/04/18 04:55:06;;;;;;;10.65;7.70;;;;;;;4.34;70.22;101868.00;5042278;28;20048;-66
2022/04/18 04:57:31;;;;;;;;;;;;;;;4.49;68.75;101860.06;5041835;28;20033;-67
2022/04/18 04:59:57;;;;;;;12.63;7.60;;;;;;;4.43;70.80;101867.03;5042113;28;20011;-66
2022/04/18 05:02:24;;;;;;;10.88;7.68;;;;;;;4.43;70.08;101867.03;5041666;28;20033;-66
2022/04/18 05:04:49;;;;;;;9.77;7.15;;;;;;;4.46;70.15;101863.13;5039251;28;20089;-67
2022/04/18 05:07:14;;;;;;;13.13;7.95;;;;;;;4.50;70.01;101864.47;5031885;28;20120;-67
2022/04/18 05:09:40;;;;;;;11.77;8.07;;;;;;;4.52;70.07;101867.91;5033725;28;20025;-67
2022/04/18 05:12:05;;;;;;;11.98;7.32;;;;;;;4.55;70.56;101861.25;5033687;28;20410;-67
2022/04/18 05:14:30;;;;;;;9.15;7.50;;;;;;;4.54;70.89;101865.84;5034855;28;20064;-67
2022/04/18 05:16:56;;;;;;;10.63;7.13;;;;;;;4.55;71.06;101867.56;5033230;28;20028;-67
2022/04/18 05:19:22;;;;;;;9.80;7.70;;;;;;;4.59;70.37;101868.94;5034823;28;20067;-65
2022/04/18 05:21:47;;;;;;;11.07;7.28;;;;;;;4.61;71.27;101871.47;5034351;28;20021;-66
2022/04/18 05:24:12;;;;;;;10.50;7.70;;;;;;;4.64;69.95;101871.16;5033229;28;21432;-67
2022/04/18 05:26:38;;;;;;;11.50;7.55;;;;;;;4.68;69.90;101869.81;5034143;28;20082;-66
2022/04/18 05:29:03;;;;;;;10.35;8.00;;;;;;;4.73;70.29;101874.75;5035571;28;20025;-66
2022/04/18 05:31:28;;;;;;;11.20;7.80;;;;;;;4.83;70.22;101868.13;5033013;28;20031;-66
2022/04/18 05:33:54;;;;;;;10.80;8.15;;;;;;;4.90;70.92;101865.56;5034164;28;20544;-65
2022/04/18 05:36:19;;;;;;;11.32;8.27;;;;;;;4.98;70.12;101872.91;5044232;28;20025;-66
2022/04/18 05:38:45;;;;;;;10.15;8.05;;;;;;;5.06;69.79;101876.47;5045382;28;20029;-66
2022/04/18 05:41:10;;;;;;;10.77;7.45;;;;;;;5.11;69.65;101870.53;5044595;28;20024;-66
2022/04/18 05:43:35;;;;;;;11.32;7.85;;;;;;;5.17;68.00;101873.44;5044852;28;20025;-66
2022/04/18 05:46:00;;;;;;;10.23;7.20;;;;;;;5.27;66.47;101867.81;5045065;28;20098;-66
2022/04/18 05:48:26;;;;;;;12.65;7.22;;;;;;;5.42;66.26;101871.56;5044735;28;20017;-66
2022/04/18 05:50:51;;;;;;;11.90;7.38;;;;;;;5.54;66.36;101873.91;5044321;28;20033;-66
2022/04/18 05:53:16;;;;;;;11.57;7.20;;;;;;;5.66;64.80;101858.91;5044539;28;20037;-66
2022/04/18 05:55:42;;;;;;;9.32;7.43;;;;;;;5.79;64.58;101864.66;5043354;28;20052;-66
2022/04/18 05:58:07;;;;;;;11.00;7.35;;;;;;;5.90;64.06;101864.28;5042558;28;20096;-66
2022/04/18 06:00:34;;;;;;;9.20;6.57;;;;;;;6.06;62.35;101868.03;5043425;28;20025;-66
2022/04/18 06:03:00;;;;;;;10.93;7.30;;;;;;;6.24;61.23;101866.75;5044542;28;20462;-66
2022/04/18 06:05:26;;;;;;;9.65;7.20;;;;;;;6.37;61.17;101865.31;5044393;28;20029;-66
2022/04/18 06:07:51;;;;;;;9.43;7.05;;;;;;;6.52;59.38;101869.00;5044791;28;20040;-66
2022/04/18 06:10:16;;;;;;;11.35;6.47;;;;;;;6.64;58.99;101863.97;5044166;28;20021;-66
2022/04/18 06:12:42;;;;;;;9.13;7.00;;;;;;;6.75;58.28;101864.44;5043640;28;20037;-65
2022/04/18 06:15:07;;;;;;;10.13;6.75;;;;;;;6.89;58.17;101870.13;5044517;28;20387;-65
2022/04/18 06:17:33;;;;;;;11.32;7.15;;;;;;;6.99;57.81;101870.72;5043246;28;20037;-66
2022/04/18 06:19:58;;;;;;;9.63;7.07;;;;;;;7.07;57.87;101875.31;5042720;28;20021;-65
2022/04/18 06:22:23;;;;;;;10.00;7.43;;;;;;;7.16;59.51;101877.78;5042712;28;20512;-66
2022/04/18 06:24:49;;;;;;;9.60;6.72;;;;;;;7.25;57.94;101871.22;5043508;28;20021;-65
2022/04/18 06:27:14;;;;;;;11.40;6.30;;;;;;;7.39;57.30;101872.28;5042503;28;20025;-66
2022/04/18 06:29:39;;;;;;;8.93;6.60;;;;;;;7.52;57.59;101872.50;5043615;28;20025;-66
2022/04/18 06:32:05;;;;;;;10.05;6.80;;;;;;;7.70;56.49;101872.16;5043589;28;20495;-66
2022/04/18 06:34:30;;;;;;;9.25;6.88;;;;;;;7.90;55.60;101866.97;5043557;28;20111;-66
2022/04/18 06:36:56;;;;;;;11.50;6.57;;;;;;;8.03;54.72;101871.81;5043514;28;20025;-66
2022/04/18 06:39:21;;;;;;;8.63;6.47;;;;;;;8.14;55.03;101879.53;5039461;28;20571;-66
2022/04/18 06:41:47;;;;;;;11.23;6.22;;;;;;;8.25;54.71;101872.72;5031290;28;20067;-66
2022/04/18 06:44:12;;;;;;;11.35;5.97;;;;;;;8.82;54.07;101866.53;5024518;28;20038;-66
2022/04/18 06:46:37;;;;;;;8.65;5.55;;;;;;;10.05;52.24;101866.06;5023856;28;20155;-66
2022/04/18 06:49:03;;;;;;;9.38;6.13;;;;;;;11.05;47.70;101864.56;5023468;28;20033;-66
2022/04/18 06:51:28;;;;;;;8.50;5.65;;;;;;;11.12;46.87;101867.31;5021522;28;20905;-66
2022/04/18 06:53:53;;;;;;;8.23;5.65;;;;;;;11.08;48.32;101868.78;5032177;28;20028;-66
2022/04/18 06:59:02;;;;;;;9.40;5.63;;;;;;;11.67;48.85;101866.06;5043800;28;20048;-66
2022/04/18 07:01:28;;;;;;;7.57;5.57;;;;;;;12.05;47.85;101857.13;5043096;28;20378;-65
2022/04/18 07:03:53;;;;;;;8.68;5.15;;;;;;;12.38;44.21;101858.94;5043375;28;20029;-65
2022/04/18 07:06:18;;;;;;;9.20;5.05;;;;;;;13.21;43.15;101851.47;5041839;28;20031;-66
2022/04/18 07:08:46;;;;;;;9.13;4.88;;;;;;;13.58;41.29;101867.31;5040802;28;20031;-66
2022/04/18 07:11:11;;;;;;;11.80;4.95;;;;;;;13.31;41.20;101858.41;5038088;28;20039;-65
2022/04/18 07:13:37;;;;;;;9.05;5.35;;;;;;;13.60;41.18;101862.41;5042263;28;20009;-65
2022/04/18 07:16:02;;;;;;;6.80;4.80;;;;;;;14.02;40.80;101860.72;5041517;28;20108;-64
2022/04/18 07:18:27;;;;;;;11.55;5.65;;;;;;;14.25;40.97;101854.53;5041740;28;20033;-65
2022/04/18 07:20:53;;;;;;;7.72;4.93;;;;;;;14.46;39.74;101855.97;5042486;28;20491;-65
2022/04/18 07:23:18;;;;;;;7.65;4.65;;;;;;;15.35;37.69;101859.81;5042119;28;20048;-62
2022/04/18 07:25:43;;;;;;;10.50;5.00;;;;;;;15.80;37.98;101859.28;5041544;28;20081;-63
2022/04/18 07:28:08;;;;;;;8.50;5.20;;;;;;;15.74;37.54;101855.53;5041359;28;20040;-63
2022/04/18 07:30:34;;;;;;;6.80;4.82;;;;;;;15.38;37.54;101856.56;5040460;28;20029;-62
2022/04/18 07:32:59;;;;;;;6.38;4.25;;;;;;;15.47;37.35;101854.31;5041119;28;20443;-65
2022/04/18 07:35:25;;;;;;;7.68;4.57;;;;;;;15.40;37.17;101854.38;5040142;28;20060;-65
2022/04/18 07:40:34;;;;;;;6.65;4.22;;;;;;;15.99;37.45;101846.16;5040379;28;20040;-65
2022/04/18 07:42:59;;;;;;;8.90;4.68;;;;;;;16.14;37.61;101849.25;5040168;28;20284;-66
2022/04/18 07:45:24;;;;;;;8.73;4.30;;;;;;;15.83;36.95;101854.09;5040530;28;20537;-65
2022/04/18 07:47:53;;;;;;;7.60;4.28;;;;;;;15.61;38.73;101850.19;5041377;28;20312;-65
2022/04/18 07:50:19;;;;;;;6.80;3.88;;;;;;;15.26;37.81;101839.09;5039915;28;20025;-66
2022/04/18 07:52:44;;;;;;;6.07;3.97;;;;;;;14.86;36.85;101836.94;5041205;28;20017;-66
2022/04/18 07:55:10;;;;;;;8.25;4.00;;;;;;;14.65;37.17;101838.31;5040503;28;20506;-66
2022/04/18 07:57:37;;;;;;;5.40;3.80;;;;;;;14.76;38.57;101834.75;5040012;28;20107;-66
2022/04/18 08:00:06;;;;;;;6.97;3.88;;;;;;;14.96;39.19;101826.16;5040786;28;20017;-65
2022/04/18 08:02:33;;;;;;;7.28;4.63;;;;;;;15.12;37.61;101837.63;5040340;28;20088;-66
2022/04/18 08:04:58;;;;;;;6.45;4.03;;;;;;;15.07;38.86;101840.25;5040682;28;20329;-66
2022/04/18 08:07:24;;;;;;;7.20;3.88;;;;;;;15.11;38.95;101838.72;5040194;28;20040;-66
2022/04/18 08:09:50;;;;;;;6.32;4.30;;;;;;;14.95;37.59;101835.53;5040769;28;20546;-65
2022/04/18 08:12:16;;;;;;;5.68;3.63;;;;;;;14.77;36.34;101839.19;5039173;28;20028;-66
2022/04/18 08:14:41;;;;;;;7.07;4.28;;;;;;;14.86;36.92;101836.13;5040835;28;20225;-65
2022/04/18 08:17:07;;;;;;;6.20;4.05;;;;;;;14.94;37.85;101841.28;5039751;28;20454;-65
2022/04/18 08:19:35;;;;;;;6.13;3.90;;;;;;;14.98;36.05;101837.81;5040610;28;20035;-65
2022/04/18 08:22:00;;;;;;;7.03;3.58;;;;;;;14.96;35.64;101831.69;5039916;28;20017;-65
2022/04/18 08:24:26;;;;;;;7.38;3.50;;;;;;;15.02;34.12;101827.13;5040449;28;20036;-65
2022/04/18 08:26:52;;;;;;;9.88;3.53;;;;;;;15.18;35.20;101833.91;5039544;28;20029;-66
2022/04/18 08:29:18;;;;;;;6.22;3.65;;;;;;;15.35;33.97;101832.13;5040325;28;20033;-65
2022/04/18 08:31:43;;;;;;;5.50;3.85;;;;;;;15.57;36.20;101840.72;5040437;28;20048;-65
2022/04/18 08:34:08;;;;;;;5.82;3.50;;;;;;;15.82;35.35;101840.50;5040982;28;20480;-66
2022/04/18 08:36:33;;;;;;;6.35;3.70;;;;;;;16.28;33.82;101830.44;5039873;28;20064;-66
2022/04/18 08:38:59;;;;;;;6.83;3.93;;;;;;;16.51;33.03;101826.75;5040014;28;20025;-65
2022/04/18 08:41:34;;;;;;;6.60;3.90;;;;;;;16.81;32.81;101830.16;5039321;28;20564;-66
2022/04/18 08:44:02;;;;;;;7.30;3.75;;;;;;;16.90;34.40;101836.16;5043754;28;20068;-66
2022/04/18 08:46:28;;;;;;;7.20;3.83;;;;;;;17.00;31.61;101836.34;5043585;28;20054;-65
2022/04/18 08:54:26;;;;;;;5.95;4.07;;;;;;;18.89;29.05;101842.75;5044092;28;20098;-65
2022/04/18 08:56:51;;;;;;;6.65;4.10;;;;;;;20.01;27.88;101840.06;5043014;28;20145;-65
2022/04/18 08:59:17;;;;;;;6.90;3.85;;;;;;;22.03;26.31;101835.16;5043580;28;20104;-66
2022/04/18 09:01:47;;;;;;;8.00;3.90;;;;;;;23.47;24.24;101827.69;5043835;28;20025;-66
2022/04/18 09:04:12;;;;;;;6.55;3.90;;;;;;;23.86;21.65;101832.38;5044034;28;20029;-66
2022/04/18 09:06:39;;;;;;;5.90;3.75;;;;;;;24.10;22.33;101832.41;5043527;28;20021;-65
2022/04/18 09:09:04;;;;;;;7.18;4.25;;;;;;;24.17;21.49;101835.69;5044140;28;20025;-65
2022/04/18 09:11:34;;;;;;;9.68;4.85;;;;;;;24.91;21.67;101829.72;5042624;28;20522;-65
2022/04/18 09:14:07;;;;;;;6.55;4.07;;;;;;;24.98;20.67;101824.53;5043515;28;20577;-64
2022/04/18 09:16:33;;;;;;;7.72;4.15;;;;;;;25.04;21.36;101828.94;5043691;28;20025;-63
2022/04/18 09:19:06;;;;;;;5.78;3.70;;;;;;;25.56;22.16;101825.00;5044072;28;20032;-63
2022/04/18 09:21:32;;;;;;;7.85;3.90;;;;;;;26.24;21.89;101820.63;5042689;28;20018;-63
2022/04/18 09:23:57;;;;;;;6.20;3.53;;;;;;;25.91;19.17;101819.91;5043729;28;20021;-63
2022/04/18 09:26:24;;;;;;;6.25;3.92;;;;;;;25.87;19.66;101822.50;5042531;28;20232;-63
2022/04/18 09:28:49;;;;;;;6.10;3.88;;;;;;;26.64;18.25;101816.16;5043207;28;20098;-62
2022/04/18 09:31:19;;;;;;;6.63;3.83;;;;;;;27.09;20.70;101815.44;5043210;28;20029;-62
2022/04/18 09:33:45;;;;;;;7.60;3.55;;;;;;;26.94;17.76;101819.41;5043545;28;20656;-62
2022/04/18 09:36:12;;;;;;;6.55;3.50;;;;;;;27.17;18.30;101809.03;5042397;28;20138;-63
2022/04/18 09:38:40;;;;;;;6.05;3.63;;;;;;;27.43;18.05;101817.69;5043709;28;20040;-63
2022/04/18 09:41:06;;;;;;;6.13;3.50;;;;;;;28.09;17.44;101810.25;5042839;28;20222;-62
2022/04/18 09:43:49;;;;;;;7.03;3.28;;;;;;;29.16;18.41;101807.00;5042615;28;20232;-62
2022/04/18 09:46:15;;;;;;;5.22;3.30;;;;;;;29.21;15.64;101809.66;5042985;28;20029;-63
2022/04/18 09:48:44;;;;;;;6.60;3.42;;;;;;;28.76;16.84;101813.94;5043248;28;20021;-63
2022/04/18 09:51:15;;;;;;;6.55;3.20;;;;;;;28.09;16.44;101804.63;5042100;28;20029;-64
2022/04/18 09:53:43;;;;;;;6.22;3.20;;;;;;;28.40;16.46;101804.56;5042599;28;20159;-64
2022/04/18 09:56:14;;;;;;;5.65;3.30;;;;;;;27.83;19.18;101800.81;5041908;28;20041;-64
2022/04/18 09:58:39;;;;;;;5.72;3.25;;;;;;;28.18;17.24;101802.66;5043112;28;20036;-64
2022/04/18 10:01:06;;;;;;;5.63;3.33;;;;;;;27.76;15.89;101792.81;5043632;28;20029;-64
2022/04/18 10:03:33;;;;;;;5.67;3.10;;;;;;;28.38;15.57;101789.09;5043264;28;20543;-65
2022/04/18 10:06:00;;;;;;;5.65;3.33;;;;;;;28.14;15.97;101790.34;5042338;28;20734;-64
2022/04/18 10:08:25;;;;;;;6.18;3.10;;;;;;;28.29;16.94;101783.41;5043250;28;20075;-65
2022/04/18 10:10:51;;;;;;;5.65;3.47;;;;;;;27.78;16.38;101779.25;5041733;28;20276;-65
2022/04/18 10:13:16;;;;;;;7.50;3.40;;;;;;;28.17;15.61;101772.72;5042492;28;20028;-65
2022/04/18 10:15:42;;;;;;;6.15;3.40;;;;;;;28.97;17.30;101778.22;5042980;28;20029;-64
2022/04/18 10:18:09;;;;;;;5.47;3.50;;;;;;;29.34;16.08;101776.66;5043140;28;20455;-65
2022/04/18 10:20:40;;;;;;;6.53;3.27;;;;;;;29.52;16.50;101774.66;5042348;28;20083;-63
2022/04/18 10:23:32;;;;;;;5.53;3.20;;;;;;;29.91;17.45;101762.22;5043341;28;20453;-63
2022/04/18 10:26:27;;;;;;;5.57;2.92;;;;;;;29.12;15.46;101774.06;5039706;28;20025;-63
2022/04/18 10:28:55;;;;;;;5.55;2.63;;;;;;;28.94;14.86;101767.56;4987717;28;20034;-63
2022/04/18 10:31:25;;;;;;;4.72;2.83;;;;;;;29.59;15.42;101765.66;5040209;28;20067;-63
2022/04/18 10:33:51;;;;;;;4.53;2.80;;;;;;;29.53;15.13;101758.50;5042323;28;20029;-63
2022/04/18 10:36:31;;;;;;;5.15;2.70;;;;;;;29.47;16.67;101758.66;5041428;28;20033;-63
2022/04/18 10:39:00;;;;;;;5.38;2.95;;;;;;;28.99;15.24;101761.72;5042165;28;20064;-63
2022/04/18 10:41:33;;;;;;;6.47;3.10;;;;;;;27.84;15.93;101761.00;5041292;28;20040;-63
2022/04/18 10:43:59;;;;;;;6.20;3.03;;;;;;;27.30;17.23;101753.69;5042059;28;20246;-63
2022/04/18 10:46:25;;;;;;;5.38;3.22;;;;;;;27.56;16.81;101746.19;5041651;28;20099;-64
2022/04/18 10:48:59;;;;;;;6.03;3.15;;;;;;;27.22;16.70;101752.50;5042241;28;20029;-64
2022/04/18 10:51:36;;;;;;;5.80;2.92;;;;;;;26.74;16.48;101744.63;5040862;28;20035;-63
2022/04/18 10:54:09;;;;;;;6.28;3.38;;;;;;;25.69;18.80;101752.19;5042151;28;20116;-63
2022/04/18 10:56:52;;;;;;;6.60;3.00;;;;;;;25.75;19.03;101754.66;5040991;28;20033;-64
2022/04/18 10:59:27;;;;;;;7.40;3.38;;;;;;;25.80;18.84;101750.88;5041486;28;20487;-63
2022/04/18 11:01:55;;;;;;;5.97;3.40;;;;;;;25.80;19.64;101740.47;5041524;28;20395;-64
2022/04/18 11:04:28;;;;;;;6.93;3.50;;;;;;;26.00;17.35;101741.19;5041523;28;20071;-64
2022/04/18 11:07:01;;;;;;;6.80;4.03;;;;;;;26.39;19.93;101741.44;5040883;28;20455;-64
2022/04/18 11:09:28;;;;;;;6.63;3.88;;;;;;;26.18;17.87;101745.03;5041111;28;20547;-64
2022/04/18 11:12:05;;;;;;;6.33;3.70;;;;;;;26.15;18.25;101732.41;5040896;28;20036;-63
2022/04/18 11:14:43;;;;;;;5.65;3.53;;;;;;;26.56;19.28;101732.38;5041716;28;20279;-64
2022/04/18 11:17:11;;;;;;;7.65;4.70;;;;;;;25.92;17.09;101728.69;5041660;28;20427;-63
2022/04/18 11:19:41;;;;;;;7.18;4.30;;;;;;;25.32;20.86;101732.34;5041621;28;20209;-64
2022/04/18 11:22:10;;;;;;;5.53;3.42;;;;;;;24.93;20.65;101729.88;5041353;28;20025;-64
2022/04/18 11:24:59;;;;;;;5.57;3.50;;;;;;;23.89;19.05;101730.78;5041881;28;20880;-64
2022/04/18 11:27:27;;;;;;;7.88;3.85;;;;;;;23.17;20.38;101735.47;5040357;28;20035;-63
2022/04/18 11:29:56;;;;;;;6.57;4.00;;;;;;;22.96;22.70;101730.03;5041257;28;20124;-63
2022/04/18 11:32:24;;;;;;;7.55;4.45;;;;;;;22.83;21.23;101729.81;5040941;28;20264;-63
2022/04/18 11:34:51;;;;;;;6.18;3.95;;;;;;;22.73;21.02;101725.13;5041189;28;20245;-63
2022/04/18 11:37:39;;;;;;;8.00;4.22;;;;;;;22.47;21.23;101716.91;5038941;28;20123;-64
2022/04/18 11:40:07;;;;;;;6.90;4.57;;;;;;;22.35;23.66;101724.78;5041531;28;20017;-64